sensor_id;sensor_type;location;lat;lon;timestamp;temperature;humidity
71291;DHT22;59073;51.994;4.448;2024-01-25T00:01:41;9.05;79.99
71291;DHT22;59073;51.994;4.448;2024-01-25T00:04:06;9.01;79.83
71291;DHT22;59073;51.994;4.448;2024-01-25T00:06:32;8.97;80.02
71291;DHT22;59073;51.994;4.448;2024-01-25T00:08:57;9.02;79.77
71291;DHT22;59073;51.994;4.448;2024-01-25T00:11:24;9.02;79.66
71291;DHT22;59073;51.994;4.448;2024-01-25T00:13:49;8.97;79.89
71291;DHT22;59073;51.994;4.448;2024-01-25T00:16:15;9.04;79.50
71291;DHT22;59073;51.994;4.448;2024-01-25T00:18:42;9.05;79.23
71291;DHT22;59073;51.994;4.448;2024-01-25T00:21:08;8.93;79.80
71291;DHT22;59073;51.994;4.448;2024-01-25T00:23:33;8.99;79.53
71291;DHT22;59073;51.994;4.448;2024-01-25T00:25:59;8.91;79.44
71291;DHT22;59073;51.994;4.448;2024-01-25T00:28:28;8.88;79.54
71291;DHT22;59073;51.994;4.448;2024-01-25T00:30:54;8.84;79.65
71291;DHT22;59073;51.994;4.448;2024-01-25T00:33:19;8.82;79.69
71291;DHT22;59073;51.994;4.448;2024-01-25T00:35:45;8.82;79.73
71291;DHT22;59073;51.994;4.448;2024-01-25T00:38:11;8.79;79.71
71291;DHT22;59073;51.994;4.448;2024-01-25T00:40:37;8.81;79.76
71291;DHT22;59073;51.994;4.448;2024-01-25T00:43:02;8.81;79.83
71291;DHT22;59073;51.994;4.448;2024-01-25T00:45:28;8.81;79.71
71291;DHT22;59073;51.994;4.448;2024-01-25T00:47:54;8.81;79.63
71291;DHT22;59073;51.994;4.448;2024-01-25T00:50:20;8.78;79.58
71291;DHT22;59073;51.994;4.448;2024-01-25T00:52:51;8.72;79.79
71291;DHT22;59073;51.994;4.448;2024-01-25T00:55:17;8.72;79.72
71291;DHT22;59073;51.994;4.448;2024-01-25T00:57:43;8.67;80.02
71291;DHT22;59073;51.994;4.448;2024-01-25T01:00:09;8.68;80.13
71291;DHT22;59073;51.994;4.448;2024-01-25T01:02:39;8.64;79.99
71291;DHT22;59073;51.994;4.448;2024-01-25T01:05:05;8.64;80.06
71291;DHT22;59073;51.994;4.448;2024-01-25T01:07:31;8.65;80.11
71291;DHT22;59073;51.994;4.448;2024-01-25T01:09:56;8.61;80.19
71291;DHT22;59073;51.994;4.448;2024-01-25T01:12:22;8.61;80.32
71291;DHT22;59073;51.994;4.448;2024-01-25T01:14:47;8.61;80.41
71291;DHT22;59073;51.994;4.448;2024-01-25T01:17:13;8.54;80.54
71291;DHT22;59073;51.994;4.448;2024-01-25T01:19:39;8.58;80.39
71291;DHT22;59073;51.994;4.448;2024-01-25T01:22:04;8.60;80.18
71291;DHT22;59073;51.994;4.448;2024-01-25T01:24:29;8.57;80.16
71291;DHT22;59073;51.994;4.448;2024-01-25T01:26:55;8.58;80.14
71291;DHT22;59073;51.994;4.448;2024-01-25T01:29:20;8.51;80.16
71291;DHT22;59073;51.994;4.448;2024-01-25T01:31:46;8.56;80.34
71291;DHT22;59073;51.994;4.448;2024-01-25T01:34:12;8.51;80.23
71291;DHT22;59073;51.994;4.448;2024-01-25T01:36:43;8.54;80.04
71291;DHT22;59073;51.994;4.448;2024-01-25T01:39:08;8.51;80.20
71291;DHT22;59073;51.994;4.448;2024-01-25T01:41:34;8.51;80.29
71291;DHT22;59073;51.994;4.448;2024-01-25T01:43:59;8.44;80.04
71291;DHT22;59073;51.994;4.448;2024-01-25T01:46:35;8.39;80.37
71291;DHT22;59073;51.994;4.448;2024-01-25T01:49:03;8.40;80.63
71291;DHT22;59073;51.994;4.448;2024-01-25T01:51:30;8.44;80.25
71291;DHT22;59073;51.994;4.448;2024-01-25T01:53:57;8.39;80.54
71291;DHT22;59073;51.994;4.448;2024-01-25T01:56:27;8.34;80.60
71291;DHT22;59073;51.994;4.448;2024-01-25T01:58:58;8.37;80.27
71291;DHT22;59073;51.994;4.448;2024-01-25T02:01:24;8.30;80.94
71291;DHT22;59073;51.994;4.448;2024-01-25T02:03:51;8.26;80.98
71291;DHT22;59073;51.994;4.448;2024-01-25T02:06:16;8.27;80.82
71291;DHT22;59073;51.994;4.448;2024-01-25T02:08:42;8.19;81.19
71291;DHT22;59073;51.994;4.448;2024-01-25T02:11:11;8.26;80.75
71291;DHT22;59073;51.994;4.448;2024-01-25T02:13:37;8.25;80.34
71291;DHT22;59073;51.994;4.448;2024-01-25T02:16:03;8.19;80.27
71291;DHT22;59073;51.994;4.448;2024-01-25T02:18:30;8.19;80.23
71291;DHT22;59073;51.994;4.448;2024-01-25T02:20:56;8.10;80.31
71291;DHT22;59073;51.994;4.448;2024-01-25T02:23:21;8.06;80.78
71291;DHT22;59073;51.994;4.448;2024-01-25T02:25:46;8.07;80.68
71291;DHT22;59073;51.994;4.448;2024-01-25T02:28:12;8.09;80.63
71291;DHT22;59073;51.994;4.448;2024-01-25T02:30:37;8.13;80.67
71291;DHT22;59073;51.994;4.448;2024-01-25T02:33:03;8.09;80.23
71291;DHT22;59073;51.994;4.448;2024-01-25T02:35:28;7.90;80.75
71291;DHT22;59073;51.994;4.448;2024-01-25T02:37:54;7.92;80.91
71291;DHT22;59073;51.994;4.448;2024-01-25T02:40:19;7.89;80.95
71291;DHT22;59073;51.994;4.448;2024-01-25T02:42:44;7.92;80.98
71291;DHT22;59073;51.994;4.448;2024-01-25T02:45:10;7.88;80.96
71291;DHT22;59073;51.994;4.448;2024-01-25T02:47:35;7.79;81.13
71291;DHT22;59073;51.994;4.448;2024-01-25T02:50:01;7.93;81.22
71291;DHT22;59073;51.994;4.448;2024-01-25T02:52:26;7.92;80.98
71291;DHT22;59073;51.994;4.448;2024-01-25T02:54:51;7.96;80.72
71291;DHT22;59073;51.994;4.448;2024-01-25T02:57:17;7.95;80.44
71291;DHT22;59073;51.994;4.448;2024-01-25T02:59:43;7.85;80.35
71291;DHT22;59073;51.994;4.448;2024-01-25T03:02:08;7.81;80.49
71291;DHT22;59073;51.994;4.448;2024-01-25T03:04:34;7.78;80.41
71291;DHT22;59073;51.994;4.448;2024-01-25T03:06:59;7.79;80.20
71291;DHT22;59073;51.994;4.448;2024-01-25T03:09:25;7.76;79.94
71291;DHT22;59073;51.994;4.448;2024-01-25T03:11:50;7.69;80.02
71291;DHT22;59073;51.994;4.448;2024-01-25T03:14:16;7.64;80.20
71291;DHT22;59073;51.994;4.448;2024-01-25T03:16:41;7.64;80.43
71291;DHT22;59073;51.994;4.448;2024-01-25T03:19:06;7.62;80.25
71291;DHT22;59073;51.994;4.448;2024-01-25T03:21:32;7.59;80.13
71291;DHT22;59073;51.994;4.448;2024-01-25T03:23:57;7.64;80.23
71291;DHT22;59073;51.994;4.448;2024-01-25T03:26:23;7.72;79.39
71291;DHT22;59073;51.994;4.448;2024-01-25T03:28:48;7.44;78.93
71291;DHT22;59073;51.994;4.448;2024-01-25T03:31:14;6.73;79.75
71291;DHT22;59073;51.994;4.448;2024-01-25T03:33:39;6.39;80.88
71291;DHT22;59073;51.994;4.448;2024-01-25T03:36:05;6.42;81.63
71291;DHT22;59073;51.994;4.448;2024-01-25T03:38:31;6.52;81.69
71291;DHT22;59073;51.994;4.448;2024-01-25T03:40:57;6.59;81.46
71291;DHT22;59073;51.994;4.448;2024-01-25T03:43:26;6.65;81.12
71291;DHT22;59073;51.994;4.448;2024-01-25T03:45:52;6.46;81.14
71291;DHT22;59073;51.994;4.448;2024-01-25T03:48:17;6.14;82.50
71291;DHT22;59073;51.994;4.448;2024-01-25T03:50:43;5.98;82.99
71291;DHT22;59073;51.994;4.448;2024-01-25T03:53:08;6.07;83.06
71291;DHT22;59073;51.994;4.448;2024-01-25T03:55:33;6.14;83.21
71291;DHT22;59073;51.994;4.448;2024-01-25T03:57:59;6.25;83.22
71291;DHT22;59073;51.994;4.448;2024-01-25T04:00:25;6.42;83.01
71291;DHT22;59073;51.994;4.448;2024-01-25T04:02:51;6.45;82.61
71291;DHT22;59073;51.994;4.448;2024-01-25T04:05:17;6.50;82.58
71291;DHT22;59073;51.994;4.448;2024-01-25T04:07:42;6.59;82.42
71291;DHT22;59073;51.994;4.448;2024-01-25T04:10:08;6.61;82.25
71291;DHT22;59073;51.994;4.448;2024-01-25T04:12:33;6.61;82.04
71291;DHT22;59073;51.994;4.448;2024-01-25T04:14:59;6.45;82.01
71291;DHT22;59073;51.994;4.448;2024-01-25T04:17:25;6.28;81.78
71291;DHT22;59073;51.994;4.448;2024-01-25T04:19:50;6.01;82.30
71291;DHT22;59073;51.994;4.448;2024-01-25T04:22:16;6.00;83.36
71291;DHT22;59073;51.994;4.448;2024-01-25T04:24:41;6.13;83.61
71291;DHT22;59073;51.994;4.448;2024-01-25T04:27:08;6.29;83.31
71291;DHT22;59073;51.994;4.448;2024-01-25T04:29:34;6.39;83.07
71291;DHT22;59073;51.994;4.448;2024-01-25T04:31:59;6.35;82.60
71291;DHT22;59073;51.994;4.448;2024-01-25T04:34:24;6.29;82.52
71291;DHT22;59073;51.994;4.448;2024-01-25T04:36:50;6.35;82.76
71291;DHT22;59073;51.994;4.448;2024-01-25T04:39:15;6.45;82.67
71291;DHT22;59073;51.994;4.448;2024-01-25T04:41:41;6.39;82.28
71291;DHT22;59073;51.994;4.448;2024-01-25T04:44:06;6.24;82.89
71291;DHT22;59073;51.994;4.448;2024-01-25T04:46:31;6.27;83.25
71291;DHT22;59073;51.994;4.448;2024-01-25T04:49:02;6.36;83.19
71291;DHT22;59073;51.994;4.448;2024-01-25T04:51:28;6.44;83.32
71291;DHT22;59073;51.994;4.448;2024-01-25T04:53:53;6.55;82.95
71291;DHT22;59073;51.994;4.448;2024-01-25T04:56:19;6.65;82.40
71291;DHT22;59073;51.994;4.448;2024-01-25T04:58:44;6.72;81.96
71291;DHT22;59073;51.994;4.448;2024-01-25T05:01:10;6.56;80.42
71291;DHT22;59073;51.994;4.448;2024-01-25T05:03:36;6.48;80.80
71291;DHT22;59073;51.994;4.448;2024-01-25T05:06:01;6.41;81.06
71291;DHT22;59073;51.994;4.448;2024-01-25T05:08:26;6.45;81.08
71291;DHT22;59073;51.994;4.448;2024-01-25T05:10:52;6.52;80.29
71291;DHT22;59073;51.994;4.448;2024-01-25T05:13:18;6.48;80.18
71291;DHT22;59073;51.994;4.448;2024-01-25T05:15:44;6.38;80.55
71291;DHT22;59073;51.994;4.448;2024-01-25T05:18:09;6.31;80.73
71291;DHT22;59073;51.994;4.448;2024-01-25T05:20:35;6.32;80.58
71291;DHT22;59073;51.994;4.448;2024-01-25T05:23:03;6.22;80.18
71291;DHT22;59073;51.994;4.448;2024-01-25T05:25:29;5.86;79.72
71291;DHT22;59073;51.994;4.448;2024-01-25T05:27:56;5.59;80.25
71291;DHT22;59073;51.994;4.448;2024-01-25T05:30:22;5.26;80.94
71291;DHT22;59073;51.994;4.448;2024-01-25T05:32:48;4.85;82.44
71291;DHT22;59073;51.994;4.448;2024-01-25T05:35:15;4.84;84.75
71291;DHT22;59073;51.994;4.448;2024-01-25T05:37:41;5.02;85.70
71291;DHT22;59073;51.994;4.448;2024-01-25T05:40:07;5.22;86.46
71291;DHT22;59073;51.994;4.448;2024-01-25T05:42:33;5.40;86.48
71291;DHT22;59073;51.994;4.448;2024-01-25T05:44:58;5.53;86.01
71291;DHT22;59073;51.994;4.448;2024-01-25T05:47:24;5.49;85.49
71291;DHT22;59073;51.994;4.448;2024-01-25T05:49:49;5.39;85.89
71291;DHT22;59073;51.994;4.448;2024-01-25T05:52:15;5.29;86.61
71291;DHT22;59073;51.994;4.448;2024-01-25T05:54:40;5.31;87.48
71291;DHT22;59073;51.994;4.448;2024-01-25T05:57:06;5.43;87.36
71291;DHT22;59073;51.994;4.448;2024-01-25T05:59:31;5.73;86.94
71291;DHT22;59073;51.994;4.448;2024-01-25T06:01:56;5.97;85.54
71291;DHT22;59073;51.994;4.448;2024-01-25T06:04:22;5.87;82.45
71291;DHT22;59073;51.994;4.448;2024-01-25T06:06:47;5.80;82.29
71291;DHT22;59073;51.994;4.448;2024-01-25T06:09:13;5.83;82.76
71291;DHT22;59073;51.994;4.448;2024-01-25T06:11:40;5.83;82.39
71291;DHT22;59073;51.994;4.448;2024-01-25T06:14:06;5.52;83.24
71291;DHT22;59073;51.994;4.448;2024-01-25T06:16:32;5.43;84.28
71291;DHT22;59073;51.994;4.448;2024-01-25T06:18:57;5.69;84.61
71291;DHT22;59073;51.994;4.448;2024-01-25T06:21:25;5.90;84.27
71291;DHT22;59073;51.994;4.448;2024-01-25T06:23:50;6.07;84.13
71291;DHT22;59073;51.994;4.448;2024-01-25T06:26:15;6.14;83.25
71291;DHT22;59073;51.994;4.448;2024-01-25T06:28:41;6.18;83.26
71291;DHT22;59073;51.994;4.448;2024-01-25T06:31:06;5.94;83.08
71291;DHT22;59073;51.994;4.448;2024-01-25T06:33:32;5.53;84.13
71291;DHT22;59073;51.994;4.448;2024-01-25T06:35:57;5.29;86.20
71291;DHT22;59073;51.994;4.448;2024-01-25T06:38:23;5.62;86.25
71291;DHT22;59073;51.994;4.448;2024-01-25T06:40:48;5.91;85.60
71291;DHT22;59073;51.994;4.448;2024-01-25T06:43:14;6.04;84.36
71291;DHT22;59073;51.994;4.448;2024-01-25T06:45:39;6.00;82.75
71291;DHT22;59073;51.994;4.448;2024-01-25T06:48:06;5.80;81.66
71291;DHT22;59073;51.994;4.448;2024-01-25T06:50:33;5.63;81.65
71291;DHT22;59073;51.994;4.448;2024-01-25T06:52:59;5.67;82.24
71291;DHT22;59073;51.994;4.448;2024-01-25T06:55:24;5.60;81.93
71291;DHT22;59073;51.994;4.448;2024-01-25T06:57:50;5.25;82.52
71291;DHT22;59073;51.994;4.448;2024-01-25T07:00:15;5.31;83.19
71291;DHT22;59073;51.994;4.448;2024-01-25T07:02:41;5.57;83.29
71291;DHT22;59073;51.994;4.448;2024-01-25T07:05:08;5.50;81.94
71291;DHT22;59073;51.994;4.448;2024-01-25T07:07:34;5.56;82.17
71291;DHT22;59073;51.994;4.448;2024-01-25T07:10:00;5.40;82.02
71291;DHT22;59073;51.994;4.448;2024-01-25T07:12:25;5.25;81.79
71291;DHT22;59073;51.994;4.448;2024-01-25T07:14:51;4.99;81.58
71291;DHT22;59073;51.994;4.448;2024-01-25T07:17:16;5.12;81.46
71291;DHT22;59073;51.994;4.448;2024-01-25T07:19:42;5.04;81.97
71291;DHT22;59073;51.994;4.448;2024-01-25T07:22:07;5.05;83.03
71291;DHT22;59073;51.994;4.448;2024-01-25T07:24:33;5.29;83.35
71291;DHT22;59073;51.994;4.448;2024-01-25T07:26:58;5.49;83.02
71291;DHT22;59073;51.994;4.448;2024-01-25T07:29:24;5.66;82.87
71291;DHT22;59073;51.994;4.448;2024-01-25T07:31:49;5.66;82.24
71291;DHT22;59073;51.994;4.448;2024-01-25T07:34:15;5.69;81.87
71291;DHT22;59073;51.994;4.448;2024-01-25T07:36:40;5.62;81.87
71291;DHT22;59073;51.994;4.448;2024-01-25T07:39:05;5.32;82.56
71291;DHT22;59073;51.994;4.448;2024-01-25T07:41:31;5.29;83.60
71291;DHT22;59073;51.994;4.448;2024-01-25T07:43:56;5.55;84.12
71291;DHT22;59073;51.994;4.448;2024-01-25T07:46:22;5.80;83.69
71291;DHT22;59073;51.994;4.448;2024-01-25T07:48:49;5.90;83.17
71291;DHT22;59073;51.994;4.448;2024-01-25T07:51:15;6.03;82.70
71291;DHT22;59073;51.994;4.448;2024-01-25T07:53:41;6.00;82.05
71291;DHT22;59073;51.994;4.448;2024-01-25T07:56:09;5.96;81.70
71291;DHT22;59073;51.994;4.448;2024-01-25T07:58:36;5.66;82.86
71291;DHT22;59073;51.994;4.448;2024-01-25T08:01:05;5.78;83.65
71291;DHT22;59073;51.994;4.448;2024-01-25T08:03:32;6.07;83.67
71291;DHT22;59073;51.994;4.448;2024-01-25T08:05:59;6.04;83.77
71291;DHT22;59073;51.994;4.448;2024-01-25T08:08:24;6.22;84.16
71291;DHT22;59073;51.994;4.448;2024-01-25T08:10:49;6.50;84.10
71291;DHT22;59073;51.994;4.448;2024-01-25T08:13:15;6.72;83.80
71291;DHT22;59073;51.994;4.448;2024-01-25T08:15:40;6.93;83.28
71291;DHT22;59073;51.994;4.448;2024-01-25T08:18:06;6.97;82.30
71291;DHT22;59073;51.994;4.448;2024-01-25T08:20:31;6.90;81.50
71291;DHT22;59073;51.994;4.448;2024-01-25T08:22:57;6.86;81.61
71291;DHT22;59073;51.994;4.448;2024-01-25T08:25:22;6.73;81.12
71291;DHT22;59073;51.994;4.448;2024-01-25T08:27:49;6.55;81.41
71291;DHT22;59073;51.994;4.448;2024-01-25T08:30:14;6.61;82.16
71291;DHT22;59073;51.994;4.448;2024-01-25T08:32:40;6.85;82.60
71291;DHT22;59073;51.994;4.448;2024-01-25T08:35:05;7.06;82.69
71291;DHT22;59073;51.994;4.448;2024-01-25T08:37:31;7.17;81.61
71291;DHT22;59073;51.994;4.448;2024-01-25T08:39:58;7.21;81.51
71291;DHT22;59073;51.994;4.448;2024-01-25T08:42:23;7.30;81.62
71291;DHT22;59073;51.994;4.448;2024-01-25T08:44:48;7.38;81.47
71291;DHT22;59073;51.994;4.448;2024-01-25T08:47:18;7.31;80.50
71291;DHT22;59073;51.994;4.448;2024-01-25T08:49:44;7.24;80.67
71291;DHT22;59073;51.994;4.448;2024-01-25T08:52:09;7.14;81.09
71291;DHT22;59073;51.994;4.448;2024-01-25T08:54:35;7.00;82.40
71291;DHT22;59073;51.994;4.448;2024-01-25T08:57:03;7.13;82.61
71291;DHT22;59073;51.994;4.448;2024-01-25T08:59:29;7.07;83.32
71291;DHT22;59073;51.994;4.448;2024-01-25T09:01:56;7.23;83.80
71291;DHT22;59073;51.994;4.448;2024-01-25T09:04:21;7.45;83.79
71291;DHT22;59073;51.994;4.448;2024-01-25T09:06:47;7.68;83.73
71291;DHT22;59073;51.994;4.448;2024-01-25T09:09:12;7.88;83.25
71291;DHT22;59073;51.994;4.448;2024-01-25T09:11:38;8.06;83.38
71291;DHT22;59073;51.994;4.448;2024-01-25T09:14:03;8.16;82.40
71291;DHT22;59073;51.994;4.448;2024-01-25T09:16:29;8.14;82.71
71291;DHT22;59073;51.994;4.448;2024-01-25T09:18:54;8.17;82.73
71291;DHT22;59073;51.994;4.448;2024-01-25T09:21:19;8.17;83.64
71291;DHT22;59073;51.994;4.448;2024-01-25T09:23:45;8.57;85.11
71291;DHT22;59073;51.994;4.448;2024-01-25T09:26:10;8.92;83.74
71291;DHT22;59073;51.994;4.448;2024-01-25T09:28:36;8.82;81.51
71291;DHT22;59073;51.994;4.448;2024-01-25T09:31:01;8.71;81.59
71291;DHT22;59073;51.994;4.448;2024-01-25T09:33:28;8.61;81.26
71291;DHT22;59073;51.994;4.448;2024-01-25T09:35:55;8.43;80.78
71291;DHT22;59073;51.994;4.448;2024-01-25T09:38:21;8.30;81.26
71291;DHT22;59073;51.994;4.448;2024-01-25T09:40:47;8.10;82.01
71291;DHT22;59073;51.994;4.448;2024-01-25T09:43:14;8.09;82.76
71291;DHT22;59073;51.994;4.448;2024-01-25T09:45:41;8.26;83.68
71291;DHT22;59073;51.994;4.448;2024-01-25T09:48:07;8.33;82.82
71291;DHT22;59073;51.994;4.448;2024-01-25T09:50:33;8.46;82.53
71291;DHT22;59073;51.994;4.448;2024-01-25T09:53:00;8.57;82.70
71291;DHT22;59073;51.994;4.448;2024-01-25T09:55:26;8.43;81.92
71291;DHT22;59073;51.994;4.448;2024-01-25T09:57:55;8.36;81.62
71291;DHT22;59073;51.994;4.448;2024-01-25T10:00:24;8.27;82.06
71291;DHT22;59073;51.994;4.448;2024-01-25T10:02:50;8.39;82.11
71291;DHT22;59073;51.994;4.448;2024-01-25T10:05:17;8.36;82.44
71291;DHT22;59073;51.994;4.448;2024-01-25T10:07:45;8.32;82.65
71291;DHT22;59073;51.994;4.448;2024-01-25T10:10:12;8.36;82.66
71291;DHT22;59073;51.994;4.448;2024-01-25T10:12:41;8.30;83.14
71291;DHT22;59073;51.994;4.448;2024-01-25T10:15:07;8.32;83.06
71291;DHT22;59073;51.994;4.448;2024-01-25T10:17:32;8.30;83.37
71291;DHT22;59073;51.994;4.448;2024-01-25T10:19:58;8.32;83.39
71291;DHT22;59073;51.994;4.448;2024-01-25T10:22:24;8.41;83.36
71291;DHT22;59073;51.994;4.448;2024-01-25T10:24:50;8.51;83.45
71291;DHT22;59073;51.994;4.448;2024-01-25T10:27:16;8.67;82.83
71291;DHT22;59073;51.994;4.448;2024-01-25T10:29:42;8.63;82.44
71291;DHT22;59073;51.994;4.448;2024-01-25T10:32:11;8.58;82.85
71291;DHT22;59073;51.994;4.448;2024-01-25T10:34:38;8.57;83.06
71291;DHT22;59073;51.994;4.448;2024-01-25T10:37:06;8.64;83.05
71291;DHT22;59073;51.994;4.448;2024-01-25T10:39:32;8.68;83.33
71291;DHT22;59073;51.994;4.448;2024-01-25T10:42:01;8.68;82.93
71291;DHT22;59073;51.994;4.448;2024-01-25T10:44:26;8.67;83.18
71291;DHT22;59073;51.994;4.448;2024-01-25T10:46:52;8.67;83.12
71291;DHT22;59073;51.994;4.448;2024-01-25T10:49:20;8.61;83.22
71291;DHT22;59073;51.994;4.448;2024-01-25T10:51:47;8.74;83.16
71291;DHT22;59073;51.994;4.448;2024-01-25T10:54:14;8.79;82.66
71291;DHT22;59073;51.994;4.448;2024-01-25T10:56:44;8.79;82.93
71291;DHT22;59073;51.994;4.448;2024-01-25T10:59:11;8.77;82.89
71291;DHT22;59073;51.994;4.448;2024-01-25T11:01:36;8.79;82.99
71291;DHT22;59073;51.994;4.448;2024-01-25T11:04:03;8.87;82.72
71291;DHT22;59073;51.994;4.448;2024-01-25T11:06:36;8.93;83.24
71291;DHT22;59073;51.994;4.448;2024-01-25T11:09:06;9.08;82.59
71291;DHT22;59073;51.994;4.448;2024-01-25T11:11:31;9.11;82.46
71291;DHT22;59073;51.994;4.448;2024-01-25T11:13:58;8.97;82.65
71291;DHT22;59073;51.994;4.448;2024-01-25T11:16:32;9.01;82.74
71291;DHT22;59073;51.994;4.448;2024-01-25T11:19:00;8.98;82.87
71291;DHT22;59073;51.994;4.448;2024-01-25T11:21:46;9.09;82.56
71291;DHT22;59073;51.994;4.448;2024-01-25T11:24:16;9.12;82.57
71291;DHT22;59073;51.994;4.448;2024-01-25T11:26:43;9.11;82.63
71291;DHT22;59073;51.994;4.448;2024-01-25T11:29:08;9.12;82.56
71291;DHT22;59073;51.994;4.448;2024-01-25T11:31:34;9.22;82.71
71291;DHT22;59073;51.994;4.448;2024-01-25T11:34:00;9.29;82.20
71291;DHT22;59073;51.994;4.448;2024-01-25T11:36:27;9.33;82.43
71291;DHT22;59073;51.994;4.448;2024-01-25T11:38:53;9.39;82.09
71291;DHT22;59073;51.994;4.448;2024-01-25T11:41:19;9.33;81.80
71291;DHT22;59073;51.994;4.448;2024-01-25T11:43:45;9.53;82.23
71291;DHT22;59073;51.994;4.448;2024-01-25T11:46:10;9.60;81.60
71291;DHT22;59073;51.994;4.448;2024-01-25T11:48:40;9.69;81.41
71291;DHT22;59073;51.994;4.448;2024-01-25T11:51:09;9.76;81.74
71291;DHT22;59073;51.994;4.448;2024-01-25T11:53:35;9.79;80.91
71291;DHT22;59073;51.994;4.448;2024-01-25T11:56:01;9.91;80.25
71291;DHT22;59073;51.994;4.448;2024-01-25T11:58:27;9.90;80.12
71291;DHT22;59073;51.994;4.448;2024-01-25T12:00:53;9.91;80.00
71291;DHT22;59073;51.994;4.448;2024-01-25T12:03:20;9.86;79.85
71291;DHT22;59073;51.994;4.448;2024-01-25T12:05:46;9.88;79.81
71291;DHT22;59073;51.994;4.448;2024-01-25T12:08:13;9.97;79.50
71291;DHT22;59073;51.994;4.448;2024-01-25T12:10:39;9.95;79.71
71291;DHT22;59073;51.994;4.448;2024-01-25T12:13:08;9.94;79.69
71291;DHT22;59073;51.994;4.448;2024-01-25T12:15:35;9.95;79.43
71291;DHT22;59073;51.994;4.448;2024-01-25T12:18:00;9.87;79.90
71291;DHT22;59073;51.994;4.448;2024-01-25T12:20:28;9.83;80.00
71291;DHT22;59073;51.994;4.448;2024-01-25T12:22:54;9.80;80.22
71291;DHT22;59073;51.994;4.448;2024-01-25T12:25:19;9.84;79.98
71291;DHT22;59073;51.994;4.448;2024-01-25T12:27:47;9.87;80.08
71291;DHT22;59073;51.994;4.448;2024-01-25T12:30:14;9.79;80.33
71291;DHT22;59073;51.994;4.448;2024-01-25T12:32:40;9.80;80.38
71291;DHT22;59073;51.994;4.448;2024-01-25T12:35:06;9.88;80.50
71291;DHT22;59073;51.994;4.448;2024-01-25T12:37:33;9.94;80.50
71291;DHT22;59073;51.994;4.448;2024-01-25T12:39:58;9.90;80.74
71291;DHT22;59073;51.994;4.448;2024-01-25T12:42:24;9.91;81.13
71291;DHT22;59073;51.994;4.448;2024-01-25T12:44:52;9.98;81.06
71291;DHT22;59073;51.994;4.448;2024-01-25T12:47:21;10.04;81.08
71291;DHT22;59073;51.994;4.448;2024-01-25T12:49:47;10.12;81.03
71291;DHT22;59073;51.994;4.448;2024-01-25T12:52:14;10.25;80.86
71291;DHT22;59073;51.994;4.448;2024-01-25T12:54:41;10.35;80.88
71291;DHT22;59073;51.994;4.448;2024-01-25T12:57:07;10.58;80.16
71291;DHT22;59073;51.994;4.448;2024-01-25T12:59:34;10.44;80.50
71291;DHT22;59073;51.994;4.448;2024-01-25T13:02:00;10.70;80.61
71291;DHT22;59073;51.994;4.448;2024-01-25T13:04:25;11.07;80.07
71291;DHT22;59073;51.994;4.448;2024-01-25T13:06:53;11.16;79.78
71291;DHT22;59073;51.994;4.448;2024-01-25T13:09:20;11.26;79.74
71291;DHT22;59073;51.994;4.448;2024-01-25T13:11:46;11.19;79.64
71291;DHT22;59073;51.994;4.448;2024-01-25T13:14:11;11.11;79.89
71291;DHT22;59073;51.994;4.448;2024-01-25T13:16:37;11.11;79.65
71291;DHT22;59073;51.994;4.448;2024-01-25T13:19:02;11.38;79.18
71291;DHT22;59073;51.994;4.448;2024-01-25T13:21:28;11.38;79.28
71291;DHT22;59073;51.994;4.448;2024-01-25T13:23:53;11.32;79.01
71291;DHT22;59073;51.994;4.448;2024-01-25T13:26:18;11.26;79.08
71291;DHT22;59073;51.994;4.448;2024-01-25T13:28:44;11.10;79.26
71291;DHT22;59073;51.994;4.448;2024-01-25T13:31:09;11.00;79.71
71291;DHT22;59073;51.994;4.448;2024-01-25T13:33:35;10.86;80.30
71291;DHT22;59073;51.994;4.448;2024-01-25T13:36:00;10.82;80.76
71291;DHT22;59073;51.994;4.448;2024-01-25T13:38:26;10.76;80.67
71291;DHT22;59073;51.994;4.448;2024-01-25T13:40:51;10.72;81.08
71291;DHT22;59073;51.994;4.448;2024-01-25T13:43:17;10.53;81.44
71291;DHT22;59073;51.994;4.448;2024-01-25T13:45:43;10.49;81.84
71291;DHT22;59073;51.994;4.448;2024-01-25T13:48:08;10.28;82.36
71291;DHT22;59073;51.994;4.448;2024-01-25T13:50:34;10.14;83.23
71291;DHT22;59073;51.994;4.448;2024-01-25T13:52:59;10.07;83.47
71291;DHT22;59073;51.994;4.448;2024-01-25T13:55:24;10.22;83.18
71291;DHT22;59073;51.994;4.448;2024-01-25T13:57:50;10.27;83.33
71291;DHT22;59073;51.994;4.448;2024-01-25T14:00:16;10.31;82.93
71291;DHT22;59073;51.994;4.448;2024-01-25T14:02:41;10.22;83.39
71291;DHT22;59073;51.994;4.448;2024-01-25T14:05:11;10.29;83.61
71291;DHT22;59073;51.994;4.448;2024-01-25T14:07:37;10.37;83.06
71291;DHT22;59073;51.994;4.448;2024-01-25T14:10:03;10.32;83.08
71291;DHT22;59073;51.994;4.448;2024-01-25T14:12:28;10.34;83.12
71291;DHT22;59073;51.994;4.448;2024-01-25T14:14:54;10.27;83.26
71291;DHT22;59073;51.994;4.448;2024-01-25T14:17:19;10.28;83.47
71291;DHT22;59073;51.994;4.448;2024-01-25T14:19:44;10.24;83.65
71291;DHT22;59073;51.994;4.448;2024-01-25T14:22:10;10.15;84.00
71291;DHT22;59073;51.994;4.448;2024-01-25T14:24:36;10.05;84.41
71291;DHT22;59073;51.994;4.448;2024-01-25T14:27:01;10.01;84.57
71291;DHT22;59073;51.994;4.448;2024-01-25T14:29:27;10.01;84.55
71291;DHT22;59073;51.994;4.448;2024-01-25T14:31:57;9.88;85.01
71291;DHT22;59073;51.994;4.448;2024-01-25T14:34:23;9.81;85.41
71291;DHT22;59073;51.994;4.448;2024-01-25T14:36:48;9.84;85.35
71291;DHT22;59073;51.994;4.448;2024-01-25T14:39:15;9.86;85.39
71291;DHT22;59073;51.994;4.448;2024-01-25T14:41:43;9.83;85.58
71291;DHT22;59073;51.994;4.448;2024-01-25T14:44:08;9.77;85.98
71291;DHT22;59073;51.994;4.448;2024-01-25T14:46:34;9.79;86.25
71291;DHT22;59073;51.994;4.448;2024-01-25T14:48:59;9.74;86.53
71291;DHT22;59073;51.994;4.448;2024-01-25T14:51:25;9.74;86.71
71291;DHT22;59073;51.994;4.448;2024-01-25T14:53:51;9.83;86.58
71291;DHT22;59073;51.994;4.448;2024-01-25T14:56:16;9.90;86.46
71291;DHT22;59073;51.994;4.448;2024-01-25T14:58:42;9.87;86.47
71291;DHT22;59073;51.994;4.448;2024-01-25T15:01:07;9.77;86.88
71291;DHT22;59073;51.994;4.448;2024-01-25T15:03:33;9.83;86.96
71291;DHT22;59073;51.994;4.448;2024-01-25T15:05:58;9.84;87.01
71291;DHT22;59073;51.994;4.448;2024-01-25T15:08:25;9.77;87.28
71291;DHT22;59073;51.994;4.448;2024-01-25T15:10:50;9.87;87.29
71291;DHT22;59073;51.994;4.448;2024-01-25T15:13:16;9.93;87.35
71291;DHT22;59073;51.994;4.448;2024-01-25T15:15:41;10.00;86.95
71291;DHT22;59073;51.994;4.448;2024-01-25T15:18:08;9.97;86.92
71291;DHT22;59073;51.994;4.448;2024-01-25T15:20:34;9.88;87.25
71291;DHT22;59073;51.994;4.448;2024-01-25T15:23:01;9.88;87.27
71291;DHT22;59073;51.994;4.448;2024-01-25T15:25:27;9.84;87.77
71291;DHT22;59073;51.994;4.448;2024-01-25T15:27:52;9.94;87.51
71291;DHT22;59073;51.994;4.448;2024-01-25T15:30:18;9.95;87.41
71291;DHT22;59073;51.994;4.448;2024-01-25T15:32:44;9.98;87.66
71291;DHT22;59073;51.994;4.448;2024-01-25T15:35:15;10.01;87.39
71291;DHT22;59073;51.994;4.448;2024-01-25T15:37:40;9.98;87.52